sensor_id;sensor_type;location;lat;lon;timestamp;P1;durP1;ratioP1;P2;durP2;ratioP2
57561;SDS011;43397;51.530;5.974;2023-07-20T00:01:35;16.17;;;14.25;;
57561;SDS011;43397;51.530;5.974;2023-07-20T00:04:01;17.48;;;14.63;;
57561;SDS011;43397;51.530;5.974;2023-07-20T00:06:28;18.95;;;15.55;;
57561;SDS011;43397;51.530;5.974;2023-07-20T00:08:53;18.27;;;14.57;;
57561;SDS011;43397;51.530;5.974;2023-07-20T00:11:19;17.58;;;14.40;;
57561;SDS011;43397;51.530;5.974;2023-07-20T00:13:45;14.43;;;12.50;;
57561;SDS011;43397;51.530;5.974;2023-07-20T00:16:11;16.55;;;12.55;;
57561;SDS011;43397;51.530;5.974;2023-07-20T00:18:37;15.95;;;11.68;;
57561;SDS011;43397;51.530;5.974;2023-07-20T00:21:02;13.68;;;10.70;;
57561;SDS011;43397;51.530;5.974;2023-07-20T00:23:29;14.32;;;11.68;;
57561;SDS011;43397;51.530;5.974;2023-07-20T00:25:55;17.48;;;11.70;;
57561;SDS011;43397;51.530;5.974;2023-07-20T00:28:21;13.68;;;11.05;;
57561;SDS011;43397;51.530;5.974;2023-07-20T00:30:46;15.40;;;10.93;;
57561;SDS011;43397;51.530;5.974;2023-07-20T00:33:12;11.75;;;10.00;;
57561;SDS011;43397;51.530;5.974;2023-07-20T00:35:38;14.55;;;10.45;;
57561;SDS011;43397;51.530;5.974;2023-07-20T00:38:04;14.05;;;10.15;;
57561;SDS011;43397;51.530;5.974;2023-07-20T00:40:36;14.02;;;10.85;;
57561;SDS011;43397;51.530;5.974;2023-07-20T00:43:02;18.40;;;10.45;;
57561;SDS011;43397;51.530;5.974;2023-07-20T00:45:28;15.35;;;10.55;;
57561;SDS011;43397;51.530;5.974;2023-07-20T00:47:54;16.05;;;10.27;;
57561;SDS011;43397;51.530;5.974;2023-07-20T00:50:20;13.18;;;10.60;;
57561;SDS011;43397;51.530;5.974;2023-07-20T00:52:46;15.65;;;10.75;;
57561;SDS011;43397;51.530;5.974;2023-07-20T00:55:12;15.90;;;11.60;;
57561;SDS011;43397;51.530;5.974;2023-07-20T00:57:39;13.18;;;10.77;;
57561;SDS011;43397;51.530;5.974;2023-07-20T01:00:05;14.65;;;11.55;;
57561;SDS011;43397;51.530;5.974;2023-07-20T01:02:32;18.00;;;12.43;;
57561;SDS011;43397;51.530;5.974;2023-07-20T01:04:57;15.65;;;11.30;;
57561;SDS011;43397;51.530;5.974;2023-07-20T01:07:24;16.80;;;11.65;;
57561;SDS011;43397;51.530;5.974;2023-07-20T01:09:57;20.25;;;12.32;;
57561;SDS011;43397;51.530;5.974;2023-07-20T01:12:30;16.65;;;12.48;;
57561;SDS011;43397;51.530;5.974;2023-07-20T01:15:02;16.95;;;12.05;;
57561;SDS011;43397;51.530;5.974;2023-07-20T01:17:28;18.88;;;12.60;;
57561;SDS011;43397;51.530;5.974;2023-07-20T01:19:54;17.10;;;12.05;;
57561;SDS011;43397;51.530;5.974;2023-07-20T01:22:22;16.50;;;11.45;;
57561;SDS011;43397;51.530;5.974;2023-07-20T01:25:18;20.30;;;11.45;;
57561;SDS011;43397;51.530;5.974;2023-07-20T01:31:10;15.25;;;10.20;;
57561;SDS011;43397;51.530;5.974;2023-07-20T01:33:39;14.75;;;9.70;;
57561;SDS011;43397;51.530;5.974;2023-07-20T01:36:07;15.48;;;9.82;;
57561;SDS011;43397;51.530;5.974;2023-07-20T01:38:33;15.15;;;11.02;;
57561;SDS011;43397;51.530;5.974;2023-07-20T01:40:59;15.43;;;11.07;;
57561;SDS011;43397;51.530;5.974;2023-07-20T01:43:25;14.32;;;9.48;;
57561;SDS011;43397;51.530;5.974;2023-07-20T01:45:51;14.93;;;9.65;;
57561;SDS011;43397;51.530;5.974;2023-07-20T01:48:18;14.13;;;10.90;;
57561;SDS011;43397;51.530;5.974;2023-07-20T01:50:43;13.13;;;10.07;;
57561;SDS011;43397;51.530;5.974;2023-07-20T01:53:09;14.93;;;10.57;;
57561;SDS011;43397;51.530;5.974;2023-07-20T01:55:35;15.75;;;10.48;;
57561;SDS011;43397;51.530;5.974;2023-07-20T01:58:01;18.48;;;10.43;;
57561;SDS011;43397;51.530;5.974;2023-07-20T02:00:26;18.40;;;11.00;;
57561;SDS011;43397;51.530;5.974;2023-07-20T02:02:52;21.52;;;11.05;;
57561;SDS011;43397;51.530;5.974;2023-07-20T02:05:19;18.02;;;11.05;;
57561;SDS011;43397;51.530;5.974;2023-07-20T02:07:45;19.98;;;11.30;;
57561;SDS011;43397;51.530;5.974;2023-07-20T02:10:10;15.13;;;11.23;;
57561;SDS011;43397;51.530;5.974;2023-07-20T02:12:36;16.08;;;10.98;;
57561;SDS011;43397;51.530;5.974;2023-07-20T02:15:02;16.85;;;10.40;;
57561;SDS011;43397;51.530;5.974;2023-07-20T02:17:28;18.55;;;11.05;;
57561;SDS011;43397;51.530;5.974;2023-07-20T02:19:54;15.27;;;10.55;;
57561;SDS011;43397;51.530;5.974;2023-07-20T02:22:21;17.73;;;10.85;;
57561;SDS011;43397;51.530;5.974;2023-07-20T02:24:46;18.50;;;11.13;;
57561;SDS011;43397;51.530;5.974;2023-07-20T02:27:12;16.10;;;11.27;;
57561;SDS011;43397;51.530;5.974;2023-07-20T02:29:40;19.20;;;13.30;;
57561;SDS011;43397;51.530;5.974;2023-07-20T02:32:06;21.60;;;13.25;;
57561;SDS011;43397;51.530;5.974;2023-07-20T02:34:32;16.65;;;13.02;;
57561;SDS011;43397;51.530;5.974;2023-07-20T02:36:58;18.02;;;12.63;;
57561;SDS011;43397;51.530;5.974;2023-07-20T02:39:25;18.42;;;14.25;;
57561;SDS011;43397;51.530;5.974;2023-07-20T02:41:52;20.05;;;14.88;;
57561;SDS011;43397;51.530;5.974;2023-07-20T02:44:17;22.85;;;15.25;;
57561;SDS011;43397;51.530;5.974;2023-07-20T02:46:43;20.50;;;16.13;;
57561;SDS011;43397;51.530;5.974;2023-07-20T02:49:09;25.13;;;16.58;;
57561;SDS011;43397;51.530;5.974;2023-07-20T02:51:34;24.70;;;16.80;;
57561;SDS011;43397;51.530;5.974;2023-07-20T02:54:00;26.70;;;18.05;;
57561;SDS011;43397;51.530;5.974;2023-07-20T02:56:27;24.80;;;18.60;;
57561;SDS011;43397;51.530;5.974;2023-07-20T02:58:53;27.30;;;19.70;;
57561;SDS011;43397;51.530;5.974;2023-07-20T03:01:18;27.75;;;20.35;;
57561;SDS011;43397;51.530;5.974;2023-07-20T03:03:44;26.38;;;20.02;;
57561;SDS011;43397;51.530;5.974;2023-07-20T03:06:10;31.77;;;21.58;;
57561;SDS011;43397;51.530;5.974;2023-07-20T03:08:35;26.27;;;21.55;;
57561;SDS011;43397;51.530;5.974;2023-07-20T03:11:01;29.95;;;21.00;;
57561;SDS011;43397;51.530;5.974;2023-07-20T03:13:28;30.30;;;21.80;;
57561;SDS011;43397;51.530;5.974;2023-07-20T03:15:53;27.25;;;22.35;;
57561;SDS011;43397;51.530;5.974;2023-07-20T03:18:19;27.30;;;19.98;;
57561;SDS011;43397;51.530;5.974;2023-07-20T03:20:45;23.77;;;20.17;;
57561;SDS011;43397;51.530;5.974;2023-07-20T03:23:10;27.35;;;20.70;;
57561;SDS011;43397;51.530;5.974;2023-07-20T03:25:36;23.25;;;19.00;;
57561;SDS011;43397;51.530;5.974;2023-07-20T03:28:02;23.42;;;18.33;;
57561;SDS011;43397;51.530;5.974;2023-07-20T03:30:29;24.98;;;18.10;;
57561;SDS011;43397;51.530;5.974;2023-07-20T03:32:54;23.27;;;18.13;;
57561;SDS011;43397;51.530;5.974;2023-07-20T03:35:20;21.35;;;17.70;;
57561;SDS011;43397;51.530;5.974;2023-07-20T03:37:46;23.92;;;19.25;;
57561;SDS011;43397;51.530;5.974;2023-07-20T03:40:11;27.63;;;19.58;;
57561;SDS011;43397;51.530;5.974;2023-07-20T03:42:37;25.60;;;20.15;;
57561;SDS011;43397;51.530;5.974;2023-07-20T03:45:03;27.35;;;20.55;;
57561;SDS011;43397;51.530;5.974;2023-07-20T03:47:31;27.80;;;21.23;;
57561;SDS011;43397;51.530;5.974;2023-07-20T03:49:56;29.00;;;22.48;;
57561;SDS011;43397;51.530;5.974;2023-07-20T03:52:22;29.88;;;22.83;;
57561;SDS011;43397;51.530;5.974;2023-07-20T03:54:48;28.00;;;22.17;;
57561;SDS011;43397;51.530;5.974;2023-07-20T03:57:14;26.00;;;21.33;;
57561;SDS011;43397;51.530;5.974;2023-07-20T03:59:39;23.42;;;20.05;;
57561;SDS011;43397;51.530;5.974;2023-07-20T04:02:10;24.63;;;19.75;;
57561;SDS011;43397;51.530;5.974;2023-07-20T04:04:37;26.63;;;19.27;;
57561;SDS011;43397;51.530;5.974;2023-07-20T04:07:03;22.85;;;18.50;;
57561;SDS011;43397;51.530;5.974;2023-07-20T04:09:31;22.65;;;18.02;;
57561;SDS011;43397;51.530;5.974;2023-07-20T04:11:57;25.52;;;22.83;;
57561;SDS011;43397;51.530;5.974;2023-07-20T04:14:22;20.42;;;15.85;;
57561;SDS011;43397;51.530;5.974;2023-07-20T04:16:48;19.33;;;14.60;;
57561;SDS011;43397;51.530;5.974;2023-07-20T04:19:15;22.67;;;15.45;;
57561;SDS011;43397;51.530;5.974;2023-07-20T04:21:42;16.30;;;14.07;;
57561;SDS011;43397;51.530;5.974;2023-07-20T04:24:08;20.10;;;14.35;;
57561;SDS011;43397;51.530;5.974;2023-07-20T04:26:33;19.63;;;14.27;;
57561;SDS011;43397;51.530;5.974;2023-07-20T04:28:59;16.67;;;13.77;;
57561;SDS011;43397;51.530;5.974;2023-07-20T04:31:24;18.52;;;14.65;;
57561;SDS011;43397;51.530;5.974;2023-07-20T04:33:50;19.27;;;14.30;;
57561;SDS011;43397;51.530;5.974;2023-07-20T04:36:16;16.65;;;13.77;;
57561;SDS011;43397;51.530;5.974;2023-07-20T04:38:43;18.15;;;14.30;;
57561;SDS011;43397;51.530;5.974;2023-07-20T04:41:09;18.08;;;14.35;;
57561;SDS011;43397;51.530;5.974;2023-07-20T04:43:34;19.88;;;14.95;;
57561;SDS011;43397;51.530;5.974;2023-07-20T04:46:00;18.20;;;14.95;;
57561;SDS011;43397;51.530;5.974;2023-07-20T04:48:26;18.35;;;16.45;;
57561;SDS011;43397;51.530;5.974;2023-07-20T04:50:51;16.38;;;14.57;;
57561;SDS011;43397;51.530;5.974;2023-07-20T04:53:17;18.00;;;14.55;;
57561;SDS011;43397;51.530;5.974;2023-07-20T04:55:48;19.98;;;13.93;;
57561;SDS011;43397;51.530;5.974;2023-07-20T04:58:14;17.38;;;13.40;;
57561;SDS011;43397;51.530;5.974;2023-07-20T05:00:40;16.17;;;12.35;;
57561;SDS011;43397;51.530;5.974;2023-07-20T05:03:06;13.88;;;10.35;;
57561;SDS011;43397;51.530;5.974;2023-07-20T05:05:31;11.57;;;10.02;;
57561;SDS011;43397;51.530;5.974;2023-07-20T05:07:57;12.30;;;9.98;;
57561;SDS011;43397;51.530;5.974;2023-07-20T05:10:23;11.35;;;8.77;;
57561;SDS011;43397;51.530;5.974;2023-07-20T05:13:02;11.00;;;8.82;;
57561;SDS011;43397;51.530;5.974;2023-07-20T05:15:28;10.23;;;7.85;;
57561;SDS011;43397;51.530;5.974;2023-07-20T05:17:53;10.77;;;7.80;;
57561;SDS011;43397;51.530;5.974;2023-07-20T05:20:19;9.30;;;8.15;;
57561;SDS011;43397;51.530;5.974;2023-07-20T05:22:45;10.52;;;7.72;;
57561;SDS011;43397;51.530;5.974;2023-07-20T05:25:11;9.15;;;7.60;;
57561;SDS011;43397;51.530;5.974;2023-07-20T05:27:37;9.32;;;7.20;;
57561;SDS011;43397;51.530;5.974;2023-07-20T05:30:05;8.77;;;7.05;;
57561;SDS011;43397;51.530;5.974;2023-07-20T05:32:32;7.53;;;6.70;;
57561;SDS011;43397;51.530;5.974;2023-07-20T05:34:58;7.68;;;5.90;;
57561;SDS011;43397;51.530;5.974;2023-07-20T05:37:24;7.60;;;5.95;;
57561;SDS011;43397;51.530;5.974;2023-07-20T05:39:49;7.68;;;5.95;;
57561;SDS011;43397;51.530;5.974;2023-07-20T05:42:15;8.35;;;5.60;;
57561;SDS011;43397;51.530;5.974;2023-07-20T05:44:41;8.68;;;5.47;;
57561;SDS011;43397;51.530;5.974;2023-07-20T05:47:08;6.35;;;4.60;;
57561;SDS011;43397;51.530;5.974;2023-07-20T05:49:34;6.88;;;4.72;;
57561;SDS011;43397;51.530;5.974;2023-07-20T05:51:59;7.07;;;5.00;;
57561;SDS011;43397;51.530;5.974;2023-07-20T05:54:25;6.88;;;4.78;;
57561;SDS011;43397;51.530;5.974;2023-07-20T05:56:50;7.78;;;5.47;;
57561;SDS011;43397;51.530;5.974;2023-07-20T05:59:16;8.75;;;5.57;;
57561;SDS011;43397;51.530;5.974;2023-07-20T06:01:42;8.45;;;5.70;;
57561;SDS011;43397;51.530;5.974;2023-07-20T06:04:09;8.18;;;5.32;;
57561;SDS011;43397;51.530;5.974;2023-07-20T06:06:35;7.60;;;6.10;;
57561;SDS011;43397;51.530;5.974;2023-07-20T06:09:01;7.65;;;5.30;;
57561;SDS011;43397;51.530;5.974;2023-07-20T06:11:27;8.45;;;5.75;;
57561;SDS011;43397;51.530;5.974;2023-07-20T06:13:52;7.45;;;5.82;;
57561;SDS011;43397;51.530;5.974;2023-07-20T06:16:18;8.02;;;5.43;;
57561;SDS011;43397;51.530;5.974;2023-07-20T06:18:43;8.48;;;5.28;;
57561;SDS011;43397;51.530;5.974;2023-07-20T06:21:11;6.65;;;4.47;;
57561;SDS011;43397;51.530;5.974;2023-07-20T06:23:36;6.75;;;4.40;;
57561;SDS011;43397;51.530;5.974;2023-07-20T06:26:02;7.05;;;4.95;;
57561;SDS011;43397;51.530;5.974;2023-07-20T06:28:28;7.35;;;4.45;;
57561;SDS011;43397;51.530;5.974;2023-07-20T06:30:59;6.68;;;5.03;;
57561;SDS011;43397;51.530;5.974;2023-07-20T06:33:25;6.80;;;4.95;;
57561;SDS011;43397;51.530;5.974;2023-07-20T06:35:51;7.63;;;5.93;;
57561;SDS011;43397;51.530;5.974;2023-07-20T06:38:18;7.43;;;5.30;;
57561;SDS011;43397;51.530;5.974;2023-07-20T06:40:43;7.15;;;5.20;;
57561;SDS011;43397;51.530;5.974;2023-07-20T06:43:11;7.30;;;5.03;;
57561;SDS011;43397;51.530;5.974;2023-07-20T06:45:36;6.68;;;5.68;;
57561;SDS011;43397;51.530;5.974;2023-07-20T06:48:02;7.65;;;5.90;;
57561;SDS011;43397;51.530;5.974;2023-07-20T06:50:28;6.82;;;5.13;;
57561;SDS011;43397;51.530;5.974;2023-07-20T06:52:53;8.43;;;6.05;;
57561;SDS011;43397;51.530;5.974;2023-07-20T06:55:20;7.25;;;5.65;;
57561;SDS011;43397;51.530;5.974;2023-07-20T06:57:46;6.68;;;5.50;;
57561;SDS011;43397;51.530;5.974;2023-07-20T07:00:12;6.68;;;5.38;;
57561;SDS011;43397;51.530;5.974;2023-07-20T07:02:38;8.02;;;6.00;;
57561;SDS011;43397;51.530;5.974;2023-07-20T07:05:04;7.60;;;6.13;;
57561;SDS011;43397;51.530;5.974;2023-07-20T07:07:31;7.13;;;5.88;;
57561;SDS011;43397;51.530;5.974;2023-07-20T07:09:56;6.68;;;5.28;;
57561;SDS011;43397;51.530;5.974;2023-07-20T07:12:23;7.88;;;5.60;;
57561;SDS011;43397;51.530;5.974;2023-07-20T07:14:49;7.40;;;5.82;;
57561;SDS011;43397;51.530;5.974;2023-07-20T07:17:15;6.57;;;5.63;;
57561;SDS011;43397;51.530;5.974;2023-07-20T07:19:40;6.38;;;5.20;;
57561;SDS011;43397;51.530;5.974;2023-07-20T07:22:06;7.40;;;5.57;;
57561;SDS011;43397;51.530;5.974;2023-07-20T07:24:32;6.35;;;4.97;;
57561;SDS011;43397;51.530;5.974;2023-07-20T07:26:57;6.05;;;4.13;;
57561;SDS011;43397;51.530;5.974;2023-07-20T07:29:24;6.18;;;4.10;;
57561;SDS011;43397;51.530;5.974;2023-07-20T07:31:50;5.70;;;3.47;;
57561;SDS011;43397;51.530;5.974;2023-07-20T07:34:16;5.85;;;4.13;;
57561;SDS011;43397;51.530;5.974;2023-07-20T07:36:42;5.68;;;4.10;;
57561;SDS011;43397;51.530;5.974;2023-07-20T07:39:08;6.72;;;4.10;;
57561;SDS011;43397;51.530;5.974;2023-07-20T07:41:34;5.43;;;3.50;;
57561;SDS011;43397;51.530;5.974;2023-07-20T07:44:00;5.13;;;3.47;;
57561;SDS011;43397;51.530;5.974;2023-07-20T07:46:27;6.70;;;3.15;;
57561;SDS011;43397;51.530;5.974;2023-07-20T07:48:52;5.60;;;3.17;;
57561;SDS011;43397;51.530;5.974;2023-07-20T07:51:18;5.70;;;2.80;;
57561;SDS011;43397;51.530;5.974;2023-07-20T07:53:45;5.70;;;3.00;;
57561;SDS011;43397;51.530;5.974;2023-07-20T07:56:11;5.53;;;2.92;;
57561;SDS011;43397;51.530;5.974;2023-07-20T07:58:36;5.90;;;3.85;;
57561;SDS011;43397;51.530;5.974;2023-07-20T08:01:02;5.80;;;3.78;;
57561;SDS011;43397;51.530;5.974;2023-07-20T08:03:29;5.65;;;3.85;;
57561;SDS011;43397;51.530;5.974;2023-07-20T08:05:55;4.97;;;3.42;;
57561;SDS011;43397;51.530;5.974;2023-07-20T08:08:21;7.00;;;5.00;;
57561;SDS011;43397;51.530;5.974;2023-07-20T08:10:47;5.55;;;3.92;;
57561;SDS011;43397;51.530;5.974;2023-07-20T08:13:13;5.75;;;4.10;;
57561;SDS011;43397;51.530;5.974;2023-07-20T08:15:39;5.75;;;3.85;;
57561;SDS011;43397;51.530;5.974;2023-07-20T08:18:07;5.40;;;3.17;;
57561;SDS011;43397;51.530;5.974;2023-07-20T08:20:34;5.80;;;3.63;;
57561;SDS011;43397;51.530;5.974;2023-07-20T08:23:00;4.97;;;3.08;;
57561;SDS011;43397;51.530;5.974;2023-07-20T08:25:25;3.72;;;1.92;;
57561;SDS011;43397;51.530;5.974;2023-07-20T08:27:52;3.08;;;1.55;;
57561;SDS011;43397;51.530;5.974;2023-07-20T08:30:20;3.50;;;1.20;;
57561;SDS011;43397;51.530;5.974;2023-07-20T08:32:46;2.90;;;1.30;;
57561;SDS011;43397;51.530;5.974;2023-07-20T08:35:12;3.67;;;1.80;;
57561;SDS011;43397;51.530;5.974;2023-07-20T08:37:39;3.95;;;1.60;;
57561;SDS011;43397;51.530;5.974;2023-07-20T08:40:05;3.10;;;1.60;;
57561;SDS011;43397;51.530;5.974;2023-07-20T08:42:31;2.47;;;1.40;;
57561;SDS011;43397;51.530;5.974;2023-07-20T08:44:57;3.97;;;1.50;;
57561;SDS011;43397;51.530;5.974;2023-07-20T08:47:24;3.45;;;1.80;;
57561;SDS011;43397;51.530;5.974;2023-07-20T08:49:51;3.30;;;1.17;;
57561;SDS011;43397;51.530;5.974;2023-07-20T08:52:20;3.25;;;1.40;;
57561;SDS011;43397;51.530;5.974;2023-07-20T08:54:47;4.22;;;1.90;;
57561;SDS011;43397;51.530;5.974;2023-07-20T08:57:13;4.13;;;1.38;;
57561;SDS011;43397;51.530;5.974;2023-07-20T08:59:40;3.45;;;1.30;;
57561;SDS011;43397;51.530;5.974;2023-07-20T09:02:06;4.05;;;1.67;;
57561;SDS011;43397;51.530;5.974;2023-07-20T09:04:34;4.20;;;2.03;;
57561;SDS011;43397;51.530;5.974;2023-07-20T09:06:59;3.53;;;1.77;;
57561;SDS011;43397;51.530;5.974;2023-07-20T09:09:25;4.45;;;2.45;;
57561;SDS011;43397;51.530;5.974;2023-07-20T09:11:52;5.32;;;1.88;;
57561;SDS011;43397;51.530;5.974;2023-07-20T09:14:18;3.38;;;1.60;;
57561;SDS011;43397;51.530;5.974;2023-07-20T09:16:46;3.58;;;1.60;;
57561;SDS011;43397;51.530;5.974;2023-07-20T09:19:13;3.78;;;1.55;;
57561;SDS011;43397;51.530;5.974;2023-07-20T09:21:40;3.28;;;1.30;;
57561;SDS011;43397;51.530;5.974;2023-07-20T09:24:05;3.22;;;1.60;;
57561;SDS011;43397;51.530;5.974;2023-07-20T09:26:32;3.05;;;1.10;;
57561;SDS011;43397;51.530;5.974;2023-07-20T09:29:10;3.22;;;1.20;;
57561;SDS011;43397;51.530;5.974;2023-07-20T09:31:36;2.63;;;0.98;;
57561;SDS011;43397;51.530;5.974;2023-07-20T09:34:01;1.85;;;0.90;;
57561;SDS011;43397;51.530;5.974;2023-07-20T09:36:27;3.78;;;1.20;;
57561;SDS011;43397;51.530;5.974;2023-07-20T09:38:53;2.30;;;1.10;;
57561;SDS011;43397;51.530;5.974;2023-07-20T09:41:19;2.80;;;1.10;;
57561;SDS011;43397;51.530;5.974;2023-07-20T09:43:47;2.45;;;0.80;;
57561;SDS011;43397;51.530;5.974;2023-07-20T09:46:14;1.10;;;0.50;;
57561;SDS011;43397;51.530;5.974;2023-07-20T09:48:40;1.17;;;0.50;;
57561;SDS011;43397;51.530;5.974;2023-07-20T09:51:06;1.33;;;0.50;;
57561;SDS011;43397;51.530;5.974;2023-07-20T09:53:32;1.77;;;0.80;;
57561;SDS011;43397;51.530;5.974;2023-07-20T09:55:59;2.30;;;0.90;;
57561;SDS011;43397;51.530;5.974;2023-07-20T09:58:24;2.30;;;1.02;;
57561;SDS011;43397;51.530;5.974;2023-07-20T10:00:51;2.22;;;0.90;;
57561;SDS011;43397;51.530;5.974;2023-07-20T10:03:20;2.03;;;0.70;;
57561;SDS011;43397;51.530;5.974;2023-07-20T10:05:48;3.10;;;0.80;;
57561;SDS011;43397;51.530;5.974;2023-07-20T10:08:17;2.17;;;0.80;;
57561;SDS011;43397;51.530;5.974;2023-07-20T10:10:45;3.95;;;1.30;;
57561;SDS011;43397;51.530;5.974;2023-07-20T10:13:13;3.90;;;1.30;;
57561;SDS011;43397;51.530;5.974;2023-07-20T10:15:43;2.45;;;1.17;;
57561;SDS011;43397;51.530;5.974;2023-07-20T10:18:12;2.50;;;1.02;;
57561;SDS011;43397;51.530;5.974;2023-07-20T10:20:44;2.50;;;0.90;;
57561;SDS011;43397;51.530;5.974;2023-07-20T10:23:11;2.13;;;1.02;;
57561;SDS011;43397;51.530;5.974;2023-07-20T10:25:38;3.17;;;0.90;;
57561;SDS011;43397;51.530;5.974;2023-07-20T10:28:05;3.47;;;1.17;;
57561;SDS011;43397;51.530;5.974;2023-07-20T10:30:31;3.67;;;1.20;;
57561;SDS011;43397;51.530;5.974;2023-07-20T10:32:58;3.63;;;1.27;;
57561;SDS011;43397;51.530;5.974;2023-07-20T10:35:24;3.15;;;1.27;;
57561;SDS011;43397;51.530;5.974;2023-07-20T10:37:52;2.60;;;1.30;;
57561;SDS011;43397;51.530;5.974;2023-07-20T10:40:29;2.75;;;1.35;;
57561;SDS011;43397;51.530;5.974;2023-07-20T10:42:57;3.17;;;1.27;;
57561;SDS011;43397;51.530;5.974;2023-07-20T10:45:39;3.45;;;1.50;;
57561;SDS011;43397;51.530;5.974;2023-07-20T10:48:06;3.85;;;1.60;;
57561;SDS011;43397;51.530;5.974;2023-07-20T10:50:38;2.78;;;1.27;;
57561;SDS011;43397;51.530;5.974;2023-07-20T10:53:06;4.80;;;1.50;;
57561;SDS011;43397;51.530;5.974;2023-07-20T10:55:35;4.45;;;1.33;;
57561;SDS011;43397;51.530;5.974;2023-07-20T10:58:08;3.15;;;1.50;;
57561;SDS011;43397;51.530;5.974;2023-07-20T11:00:34;5.03;;;1.50;;
57561;SDS011;43397;51.530;5.974;2023-07-20T11:03:01;3.55;;;1.27;;
57561;SDS011;43397;51.530;5.974;2023-07-20T11:05:36;2.72;;;1.15;;
57561;SDS011;43397;51.530;5.974;2023-07-20T11:08:04;3.45;;;1.30;;
57561;SDS011;43397;51.530;5.974;2023-07-20T11:10:34;4.78;;;1.65;;
57561;SDS011;43397;51.530;5.974;2023-07-20T11:13:15;3.83;;;1.85;;
57561;SDS011;43397;51.530;5.974;2023-07-20T11:15:45;3.00;;;1.48;;
57561;SDS011;43397;51.530;5.974;2023-07-20T11:18:11;3.88;;;1.90;;
57561;SDS011;43397;51.530;5.974;2023-07-20T11:20:37;3.92;;;1.60;;
57561;SDS011;43397;51.530;5.974;2023-07-20T11:23:03;2.42;;;1.13;;
57561;SDS011;43397;51.530;5.974;2023-07-20T11:25:37;3.88;;;1.90;;
57561;SDS011;43397;51.530;5.974;2023-07-20T11:28:06;4.75;;;1.85;;
57561;SDS011;43397;51.530;5.974;2023-07-20T11:30:32;2.65;;;1.00;;
57561;SDS011;43397;51.530;5.974;2023-07-20T11:32:58;3.42;;;1.30;;
57561;SDS011;43397;51.530;5.974;2023-07-20T11:35:24;3.70;;;1.45;;
57561;SDS011;43397;51.530;5.974;2023-07-20T11:37:49;2.72;;;1.25;;
57561;SDS011;43397;51.530;5.974;2023-07-20T11:40:15;2.28;;;1.08;;
57561;SDS011;43397;51.530;5.974;2023-07-20T11:42:42;3.05;;;0.93;;
57561;SDS011;43397;51.530;5.974;2023-07-20T11:45:09;2.58;;;0.95;;
57561;SDS011;43397;51.530;5.974;2023-07-20T11:47:35;2.97;;;1.00;;
57561;SDS011;43397;51.530;5.974;2023-07-20T11:50:05;3.85;;;1.50;;
57561;SDS011;43397;51.530;5.974;2023-07-20T11:52:32;3.67;;;1.15;;
57561;SDS011;43397;51.530;5.974;2023-07-20T11:54:59;4.22;;;1.90;;
57561;SDS011;43397;51.530;5.974;2023-07-20T11:57:25;3.85;;;1.52;;
57561;SDS011;43397;51.530;5.974;2023-07-20T11:59:55;4.18;;;1.70;;
57561;SDS011;43397;51.530;5.974;2023-07-20T12:02:22;4.57;;;1.80;;
57561;SDS011;43397;51.530;5.974;2023-07-20T12:04:47;4.45;;;1.90;;
57561;SDS011;43397;51.530;5.974;2023-07-20T12:07:14;3.70;;;1.88;;
57561;SDS011;43397;51.530;5.974;2023-07-20T12:09:39;3.17;;;1.58;;
57561;SDS011;43397;51.530;5.974;2023-07-20T12:12:09;4.20;;;1.90;;
57561;SDS011;43397;51.530;5.974;2023-07-20T12:14:35;4.95;;;1.70;;
57561;SDS011;43397;51.530;5.974;2023-07-20T12:17:02;4.40;;;1.50;;
57561;SDS011;43397;51.530;5.974;2023-07-20T12:19:28;3.88;;;1.50;;
57561;SDS011;43397;51.530;5.974;2023-07-20T12:21:56;3.70;;;1.70;;
57561;SDS011;43397;51.530;5.974;2023-07-20T12:24:23;3.42;;;1.30;;
57561;SDS011;43397;51.530;5.974;2023-07-20T12:26:49;4.43;;;1.80;;
57561;SDS011;43397;51.530;5.974;2023-07-20T12:29:21;2.75;;;1.17;;
57561;SDS011;43397;51.530;5.974;2023-07-20T12:31:47;2.20;;;1.23;;
57561;SDS011;43397;51.530;5.974;2023-07-20T12:34:14;4.30;;;1.55;;
57561;SDS011;43397;51.530;5.974;2023-07-20T12:36:39;3.08;;;1.50;;
57561;SDS011;43397;51.530;5.974;2023-07-20T12:39:05;2.83;;;1.30;;
57561;SDS011;43397;51.530;5.974;2023-07-20T12:41:31;3.83;;;1.50;;
57561;SDS011;43397;51.530;5.974;2023-07-20T12:43:56;3.92;;;1.30;;
57561;SDS011;43397;51.530;5.974;2023-07-20T12:46:22;4.95;;;1.25;;
57561;SDS011;43397;51.530;5.974;2023-07-20T12:48:48;7.45;;;2.25;;
57561;SDS011;43397;51.530;5.974;2023-07-20T12:51:15;5.88;;;1.63;;
57561;SDS011;43397;51.530;5.974;2023-07-20T12:53:40;4.05;;;1.48;;
57561;SDS011;43397;51.530;5.974;2023-07-20T12:56:06;4.10;;;1.88;;
57561;SDS011;43397;51.530;5.974;2023-07-20T12:58:32;3.50;;;1.83;;
57561;SDS011;43397;51.530;5.974;2023-07-20T13:00:57;3.88;;;1.67;;
57561;SDS011;43397;51.530;5.974;2023-07-20T13:03:23;3.00;;;1.30;;
57561;SDS011;43397;51.530;5.974;2023-07-20T13:05:49;4.45;;;1.80;;
57561;SDS011;43397;51.530;5.974;2023-07-20T13:08:16;4.22;;;1.42;;
57561;SDS011;43397;51.530;5.974;2023-07-20T13:10:42;3.75;;;1.75;;
57561;SDS011;43397;51.530;5.974;2023-07-20T13:13:08;4.38;;;1.60;;
57561;SDS011;43397;51.530;5.974;2023-07-20T13:15:40;4.15;;;2.03;;
57561;SDS011;43397;51.530;5.974;2023-07-20T13:18:06;4.00;;;1.73;;
57561;SDS011;43397;51.530;5.974;2023-07-20T13:20:32;3.75;;;1.45;;
57561;SDS011;43397;51.530;5.974;2023-07-20T13:22:58;3.45;;;1.83;;
57561;SDS011;43397;51.530;5.974;2023-07-20T13:25:25;3.28;;;1.50;;
57561;SDS011;43397;51.530;5.974;2023-07-20T13:27:51;3.35;;;1.92;;
57561;SDS011;43397;51.530;5.974;2023-07-20T13:30:16;4.68;;;1.77;;
57561;SDS011;43397;51.530;5.974;2023-07-20T13:32:42;3.55;;;2.03;;
57561;SDS011;43397;51.530;5.974;2023-07-20T13:35:08;4.15;;;1.90;;
57561;SDS011;43397;51.530;5.974;2023-07-20T13:37:34;2.88;;;1.58;;
57561;SDS011;43397;51.530;5.974;2023-07-20T13:39:59;5.22;;;1.88;;
57561;SDS011;43397;51.530;5.974;2023-07-20T13:42:26;3.50;;;2.00;;
57561;SDS011;43397;51.530;5.974;2023-07-20T13:44:52;5.57;;;2.00;;
57561;SDS011;43397;51.530;5.974;2023-07-20T13:47:18;3.83;;;2.00;;
57561;SDS011;43397;51.530;5.974;2023-07-20T13:49:43;3.92;;;1.77;;
57561;SDS011;43397;51.530;5.974;2023-07-20T13:52:09;4.47;;;1.92;;
57561;SDS011;43397;51.530;5.974;2023-07-20T13:54:35;3.03;;;1.50;;
57561;SDS011;43397;51.530;5.974;2023-07-20T13:57:00;2.92;;;1.40;;
57561;SDS011;43397;51.530;5.974;2023-07-20T13:59:27;3.72;;;1.80;;
57561;SDS011;43397;51.530;5.974;2023-07-20T14:01:53;3.28;;;1.50;;
57561;SDS011;43397;51.530;5.974;2023-07-20T14:04:19;4.00;;;1.42;;
57561;SDS011;43397;51.530;5.974;2023-07-20T14:06:44;3.80;;;1.85;;
57561;SDS011;43397;51.530;5.974;2023-07-20T14:09:10;3.55;;;1.73;;
57561;SDS011;43397;51.530;5.974;2023-07-20T14:11:36;3.92;;;1.60;;
57561;SDS011;43397;51.530;5.974;2023-07-20T14:14:01;3.83;;;1.90;;
57561;SDS011;43397;51.530;5.974;2023-07-20T14:16:29;4.57;;;1.92;;
57561;SDS011;43397;51.530;5.974;2023-07-20T14:18:54;3.67;;;1.75;;
57561;SDS011;43397;51.530;5.974;2023-07-20T14:21:20;4.25;;;1.75;;
57561;SDS011;43397;51.530;5.974;2023-07-20T14:23:47;3.88;;;1.25;;
57561;SDS011;43397;51.530;5.974;2023-07-20T14:26:14;3.30;;;1.83;;
57561;SDS011;43397;51.530;5.974;2023-07-20T14:28:40;4.43;;;2.20;;
57561;SDS011;43397;51.530;5.974;2023-07-20T14:31:05;3.40;;;1.73;;
57561;SDS011;43397;51.530;5.974;2023-07-20T14:33:32;3.80;;;1.55;;
57561;SDS011;43397;51.530;5.974;2023-07-20T14:35:58;2.97;;;1.50;;
57561;SDS011;43397;51.530;5.974;2023-07-20T14:38:24;5.50;;;1.90;;